Impacts TAF Board INFO
FOR SITUATIONAL AWARENESS. NOT TO BE USED FOR FLIGHT PLANNING PURPOSES.
IDs:

KJFK - New York/Kennedy Int, NY, US

Issued at 2342 UTC 19 Feb 2018
Updated at 0139 UTC 20 Feb 2018
Potential Impact None Slight Moderate High
Time<<20/14Z 20/15Z 20/16Z 20/17Z 20/18Z 20/19Z 20/20Z 20/21Z 20/22Z 20/23Z 21/00Z 21/01Z 21/02Z>>
Type PRVL PRVL PRVL PRVL PRVL PRVL PRVL PRVL PRVL PRVL PRVL PRVL PRVL
VIS 3 3 6 6 6 6 6 6 6 6 6 6 6
CIG 7 7 15 15 15 250 250 250 250 250 250 250 250
Cover BKN BKN BKN BKN BKN BKN BKN BKN BKN BKN BKN BKN BKN
FltCat IFR IFR MVFR MVFR MVFR VFR VFR VFR VFR VFR VFR VFR VFR
WX BR BR BR BR BR BR BR BR BR BR BR BR BR
WDir 210 210 220 220 220 190 190 190 190 190 200 200 200
WSpd 8 8 10 10 10 14 14 14 14 14 12 12 12
WGst -- -- -- -- -- -- -- -- -- -- -- -- --

Raw TAF
KJFK 192342Z 2000/2106 17008KT 4SM -RA BR SCT007 BKN015 WS020/21040KT
  TEMPO 2000/2002 BKN007
  FM200200 20005KT 2SM -RADZ BR BKN006 WS020/23035KT
  FM200500 21005KT 1SM -DZ BR OVC004 WS020/23035KT
  TEMPO 2009/2013 1/2SM FG VV002
  FM201400 21008KT 3SM BR BKN007
  FM201600 22010KT 6SM BR SCT007 BKN015
  FM201900 19014KT 6SM BR FEW015 SCT025 BKN250
  FM210000 20012KT 6SM BR SCT015 BKN250
  FM210400 21010KT 3SM BR SCT007 BKN015


METAR Board
Radar Display
Forecast Discussion

FOR SITUATIONAL AWARENESS. NOT TO BE USED FOR FLIGHT PLANNING PURPOSES.